createdAt,value
2018-10-05T00:01:49.819Z,33.80
2018-10-05T00:06:51.975Z,34.97
2018-10-05T00:11:54.111Z,29.20
2018-10-05T00:16:56.280Z,30.23
2018-10-05T00:21:58.442Z,32.50
2018-10-05T00:27:00.587Z,32.43
2018-10-05T00:32:02.772Z,32.77
2018-10-05T00:37:05.167Z,34.40
2018-10-05T00:42:07.379Z,34.10
2018-10-05T00:47:09.562Z,39.70
2018-10-05T00:52:11.747Z,33.93
2018-10-05T00:57:13.827Z,38.37
2018-10-05T01:02:15.994Z,34.77
2018-10-05T01:07:18.136Z,36.00
2018-10-05T01:12:20.291Z,34.20
2018-10-05T01:17:22.425Z,35.20
2018-10-05T01:22:24.932Z,40.17
2018-10-05T01:27:27.051Z,34.60
2018-10-05T01:32:29.211Z,35.20
2018-10-05T01:37:31.314Z,34.27
2018-10-05T01:42:33.426Z,36.77
2018-10-05T01:47:35.522Z,33.97
2018-10-05T01:52:37.655Z,35.50
2018-10-05T01:57:39.792Z,33.40
2018-10-05T02:02:41.986Z,33.13
2018-10-05T02:07:44.041Z,35.53
2018-10-05T02:12:46.212Z,33.60
2018-10-05T02:17:48.334Z,36.17
2018-10-05T02:22:50.506Z,33.60
2018-10-05T02:27:52.633Z,35.87
2018-10-05T02:32:54.813Z,35.40
2018-10-05T02:37:56.919Z,35.13
2018-10-05T02:42:59.062Z,32.93
2018-10-05T02:48:01.169Z,31.23
2018-10-05T02:53:03.458Z,31.73
2018-10-05T02:58:05.961Z,32.03
2018-10-05T03:03:08.123Z,33.23
2018-10-05T03:08:10.227Z,32.83
2018-10-05T03:13:12.380Z,29.83
2018-10-05T03:18:14.538Z,30.70
2018-10-05T03:23:16.656Z,33.50
2018-10-05T03:28:18.769Z,32.73
2018-10-05T03:33:20.941Z,31.60
2018-10-05T03:38:23.079Z,34.17
2018-10-05T03:43:25.222Z,32.90
2018-10-05T03:48:27.323Z,34.37
2018-10-05T03:53:29.478Z,32.30
2018-10-05T03:58:31.611Z,32.17
2018-10-05T04:03:33.728Z,31.40
2018-10-05T04:08:36.096Z,31.23
2018-10-05T04:13:38.221Z,32.27
2018-10-05T04:18:40.419Z,31.70
2018-10-05T04:23:42.538Z,32.07
2018-10-05T04:28:44.648Z,29.10
2018-10-05T04:33:47.096Z,31.43
2018-10-05T04:38:49.256Z,31.13
2018-10-05T04:43:51.386Z,29.63
2018-10-05T04:48:53.508Z,33.03
2018-10-05T04:53:55.661Z,28.30
2018-10-05T04:58:58.056Z,32.90
2018-10-05T05:04:00.211Z,30.20
2018-10-05T05:09:02.427Z,33.17
2018-10-05T05:14:04.561Z,29.40
2018-10-05T05:19:06.713Z,31.33
2018-10-05T05:24:08.841Z,33.70
2018-10-05T05:29:11.006Z,30.00
2018-10-05T05:34:13.214Z,32.67
2018-10-05T05:39:15.373Z,34.10
2018-10-05T05:44:17.539Z,33.93
2018-10-05T05:49:19.687Z,32.20
2018-10-05T05:54:21.866Z,32.80
2018-10-05T05:59:23.943Z,32.73
2018-10-05T06:04:26.086Z,32.27
2018-10-05T06:09:28.236Z,31.80
2018-10-05T06:14:30.370Z,31.40
2018-10-05T06:19:32.495Z,31.67
2018-10-05T06:24:34.632Z,30.73
2018-10-05T06:29:36.801Z,34.20
2018-10-05T06:34:38.979Z,30.53
2018-10-05T06:39:41.090Z,29.63
2018-10-05T06:44:43.179Z,28.70
2018-10-05T06:49:45.339Z,29.07
2018-10-05T06:54:47.471Z,29.35
2018-10-05T06:59:49.595Z,28.80
2018-10-05T07:04:52.063Z,28.00
2018-10-05T07:09:54.204Z,28.90
2018-10-05T07:14:56.342Z,28.80
2018-10-05T07:19:58.461Z,29.37
2018-10-05T07:25:00.607Z,28.67
2018-10-05T07:30:02.824Z,29.43
2018-10-05T07:35:05.076Z,30.53
2018-10-05T07:40:07.227Z,28.80
2018-10-05T07:45:09.338Z,26.50
2018-10-05T07:50:11.549Z,28.60
2018-10-05T07:55:13.669Z,28.70
2018-10-05T08:00:15.792Z,30.40
2018-10-05T08:05:17.913Z,26.77
2018-10-05T08:10:20.117Z,28.43
2018-10-05T08:15:22.246Z,29.47
2018-10-05T08:20:24.438Z,27.93
2018-10-05T08:25:26.582Z,27.07
2018-10-05T08:30:28.732Z,27.47
2018-10-05T08:35:30.915Z,28.60
2018-10-05T08:40:33.122Z,27.17
2018-10-05T08:45:35.319Z,28.90
2018-10-05T08:50:37.480Z,25.93
2018-10-05T08:55:39.636Z,27.17
2018-10-05T09:00:42.603Z,24.40
2018-10-05T09:05:44.827Z,23.73
2018-10-05T09:10:46.990Z,25.97
2018-10-05T09:15:49.151Z,24.13
2018-10-05T09:20:51.321Z,25.10
2018-10-05T09:25:53.511Z,23.83
2018-10-05T09:30:55.684Z,23.00
2018-10-05T09:35:57.882Z,24.87
2018-10-05T09:41:00.104Z,23.83
2018-10-05T09:46:02.275Z,27.67
2018-10-05T09:51:04.434Z,24.63
2018-10-05T09:56:06.655Z,23.23
2018-10-05T10:01:14.650Z,24.33
2018-10-05T10:06:16.776Z,24.73
2018-10-05T10:11:18.921Z,24.73
2018-10-05T10:16:21.111Z,23.13
2018-10-05T10:21:23.252Z,24.47
2018-10-05T10:26:25.424Z,23.50
2018-10-05T10:31:27.548Z,22.13
2018-10-05T10:36:29.760Z,23.30
2018-10-05T10:41:31.897Z,22.73
2018-10-05T10:46:34.204Z,21.90
2018-10-05T10:51:36.383Z,24.07
2018-10-05T10:56:38.525Z,19.63
2018-10-05T11:01:40.642Z,22.30
2018-10-05T11:06:42.766Z,19.37
2018-10-05T11:11:44.925Z,18.60
2018-10-05T11:16:47.088Z,20.03
2018-10-05T11:21:49.245Z,20.50
2018-10-05T11:26:51.427Z,18.77
2018-10-05T11:31:53.551Z,22.37
2018-10-05T11:36:55.769Z,21.23
2018-10-05T11:41:57.954Z,17.63
2018-10-05T11:47:00.138Z,18.03
2018-10-05T11:52:02.281Z,16.10
2018-10-05T11:57:04.472Z,16.07
2018-10-05T12:02:06.642Z,16.93
2018-10-05T12:07:08.790Z,14.37
2018-10-05T12:12:10.931Z,13.37
2018-10-05T12:17:13.103Z,13.87
2018-10-05T12:22:15.261Z,12.47
2018-10-05T12:27:17.401Z,12.27
2018-10-05T12:32:19.595Z,11.18
2018-10-05T12:37:21.780Z,8.43
2018-10-05T12:42:23.972Z,5.43
2018-10-05T12:47:26.172Z,4.93
2018-10-05T12:52:28.430Z,3.67
2018-10-05T12:57:30.584Z,4.00
2018-10-05T13:02:32.708Z,3.33
2018-10-05T13:07:35.049Z,4.03
2018-10-05T13:12:37.216Z,4.23
2018-10-05T13:17:39.448Z,3.43
2018-10-05T13:22:41.600Z,4.70
2018-10-05T13:27:43.876Z,3.40
2018-10-05T13:32:46.032Z,3.13
2018-10-05T13:37:48.292Z,3.97
2018-10-05T13:42:50.492Z,3.40
2018-10-05T13:47:52.619Z,3.37
2018-10-05T13:52:54.788Z,2.70
2018-10-05T13:57:56.959Z,2.77
2018-10-05T14:02:59.145Z,2.50
2018-10-05T14:08:01.302Z,2.40
2018-10-05T14:13:03.508Z,2.63
2018-10-05T14:18:05.713Z,3.00
2018-10-05T14:23:07.873Z,2.30
2018-10-05T14:28:09.980Z,2.63
2018-10-05T14:33:12.434Z,2.60
2018-10-05T14:38:14.658Z,2.40
2018-10-05T14:43:16.835Z,2.20
2018-10-05T14:48:19.008Z,2.50
2018-10-05T14:53:21.166Z,2.30
2018-10-05T14:58:23.347Z,2.27
2018-10-05T15:03:25.444Z,2.17
2018-10-05T15:08:27.642Z,1.87
2018-10-05T15:13:29.806Z,2.00
2018-10-05T15:18:32.025Z,2.20
2018-10-05T15:23:34.181Z,2.03
2018-10-05T15:28:36.344Z,2.23
2018-10-05T15:33:38.528Z,1.83
2018-10-05T15:38:40.767Z,1.87
2018-10-05T15:43:42.958Z,2.10
2018-10-05T15:48:45.111Z,2.20
2018-10-05T15:53:47.311Z,1.60
2018-10-05T15:58:49.514Z,2.47
2018-10-05T16:03:51.683Z,1.90
2018-10-05T16:08:53.850Z,2.00
2018-10-05T16:13:56.024Z,2.00
2018-10-05T16:18:58.158Z,1.90
2018-10-05T16:24:01.597Z,2.30
2018-10-05T16:29:04.063Z,2.20
2018-10-05T16:34:06.413Z,2.20
2018-10-05T16:39:10.022Z,2.17
2018-10-05T16:44:12.250Z,2.57
2018-10-05T16:49:14.460Z,2.60
2018-10-05T16:54:16.634Z,2.53
2018-10-05T16:59:18.804Z,2.70
2018-10-05T17:04:21.036Z,2.43
2018-10-05T17:09:23.215Z,2.60
2018-10-05T17:14:25.423Z,2.70
2018-10-05T17:19:27.583Z,3.13
2018-10-05T17:24:29.779Z,2.80
2018-10-05T17:29:31.962Z,3.40
2018-10-05T17:34:34.126Z,3.30
2018-10-05T17:39:36.356Z,3.90
2018-10-05T17:44:38.553Z,4.30
2018-10-05T17:49:40.725Z,4.20
2018-10-05T17:54:42.911Z,4.30
2018-10-05T17:59:45.048Z,4.50
2018-10-05T18:04:47.182Z,4.30
2018-10-05T18:09:49.448Z,4.30
2018-10-05T18:14:51.681Z,3.97
2018-10-05T18:19:53.849Z,4.27
2018-10-05T18:24:56.041Z,4.07
2018-10-05T18:29:58.259Z,4.20
2018-10-05T18:35:00.478Z,4.90
2018-10-05T18:40:02.776Z,5.63
2018-10-05T18:45:05.038Z,6.10
2018-10-05T18:50:07.485Z,7.50
2018-10-05T18:55:09.685Z,7.10
2018-10-05T19:00:12.018Z,6.30
2018-10-05T19:05:14.228Z,8.00
2018-10-05T19:10:16.472Z,6.70
2018-10-05T19:15:18.719Z,6.10
2018-10-05T19:20:20.994Z,5.93
2018-10-05T19:25:23.281Z,5.63
2018-10-05T19:30:25.877Z,5.33
2018-10-05T19:35:28.157Z,4.00
2018-10-05T19:40:30.465Z,4.00
2018-10-05T19:45:32.710Z,3.53
2018-10-05T19:50:34.917Z,4.03
2018-10-05T19:55:37.116Z,3.60
2018-10-05T20:00:39.304Z,2.93
2018-10-05T20:05:41.590Z,3.40
2018-10-05T20:10:43.852Z,3.35
2018-10-05T20:15:46.072Z,3.17
2018-10-05T20:20:48.284Z,3.23
2018-10-05T20:25:50.690Z,2.60
2018-10-05T20:30:52.895Z,4.10
2018-10-05T20:35:55.214Z,3.50
2018-10-05T20:40:57.346Z,3.50
2018-10-05T20:45:59.528Z,3.27
2018-10-05T20:51:01.716Z,3.47
2018-10-05T20:56:03.909Z,3.10
2018-10-05T21:01:06.309Z,2.97
2018-10-05T21:06:08.502Z,3.63
2018-10-05T21:11:10.676Z,3.63
2018-10-05T21:16:12.827Z,3.93
2018-10-05T21:21:15.067Z,3.70
2018-10-05T21:26:17.243Z,3.37
2018-10-05T21:31:19.479Z,3.43
2018-10-05T21:36:21.663Z,3.70
2018-10-05T21:41:23.912Z,4.60
2018-10-05T21:46:26.120Z,4.00
2018-10-05T21:51:28.304Z,4.20
2018-10-05T21:56:30.602Z,4.30
2018-10-05T22:01:32.752Z,4.50
2018-10-05T22:06:34.930Z,3.93
2018-10-05T22:11:37.055Z,4.20
2018-10-05T22:16:39.232Z,4.20
2018-10-05T22:21:41.371Z,4.40
2018-10-05T22:26:43.514Z,5.20
2018-10-05T22:31:45.682Z,5.10
2018-10-05T22:36:47.884Z,4.13
2018-10-05T22:41:50.090Z,4.30
2018-10-05T22:46:52.499Z,4.67
2018-10-05T22:51:54.638Z,4.57
2018-10-05T22:56:56.763Z,5.17
2018-10-05T23:01:58.948Z,5.13
2018-10-05T23:07:01.093Z,4.20
2018-10-05T23:12:03.271Z,5.53
2018-10-05T23:17:05.667Z,5.10
2018-10-05T23:22:07.840Z,4.90
2018-10-05T23:27:10.007Z,5.70
2018-10-05T23:32:12.121Z,4.87
2018-10-05T23:37:14.285Z,4.43
2018-10-05T23:42:16.448Z,5.20
2018-10-05T23:47:18.570Z,5.13
2018-10-05T23:52:40.703Z,6.23
2018-10-05T23:57:43.189Z,5.63
